1221-й км

Карта отелей и гостиниц, располагающихся рядом с аэропортом 1221-й км :

1221-й км Свердловская область 60° 49' 13.7712" N, 60° 34' 34.0788" E
1221-й км Свердловская область 60° 49' 13.7712" N, 60° 34' 34.0788" E
Код аэродрома ИКАО
HDV0
Код аэродрома RU
ХДЖ0
Координаты
N60.82049° E060.57613°
Превышение над уровнем моря
76
Основная полоса
34/16
Курс магнитный
342,9/162,9
Длина основной ВПП
20
Ширина основной ВПП
20
Покрытие основной ВПП
Твёрдое
Освещение ВПП
Нет
Тип: 
Вертодром
Класс аэродрома: 
Принадлежность: 
ГА
Статус: 
Действующий
Сайт: 
E-mail аэродрома: 
Страна: 
Россия
Регион: 
Свердловская область
Город: 
Дополнительная информация: 
Владелец ПП: нет данных.

Найти трансфер

С помощью этой формы Вы можете найти трансфер из аэропорта 1221-й км в город, аэропорт или вокзал:

Карта места

Javascript is required to view this map.

Погода в аэропортах:

Авиационная погода в Савонлинна

Регион: 
Погода METAR: 
EFSA 051050Z AUTO 02007KT 350V060 9999 VCSH //////CB 18/09 Q1016
Время наблюдения
2021-08-05T10:50:00Z
Температура C
18.0
Точка росы
9.0
Направление ветра
20
Скорость ветра (узлы)
7
Метео видимость
6.21
Явления погоды
VCSH
Условия полета

Авиационная погода в Магнитогорске

Погода METAR: 
USCM 051100Z 15003MPS 9999 TS BKN040CB 32/12 Q1009 R18/090060 TEMPO VRB21MPS 2000 TSRAGR SQ BKN007CB RMK QFE719
Время наблюдения
2021-08-05T11:00:00Z
Температура C
32.0
Точка росы
12.0
Направление ветра
150
Скорость ветра (узлы)
6
Метео видимость
6.21
Явления погоды
TS
Условия полета
VFR
Аэропорт подробнее: 

Авиационная погода в Мирном

Регион: 
Погода METAR: 
UERR 051100Z 25002MPS 1000 HZ VV004 19/15 Q1006 R25/CLRD60 TEMPO 0500 HZ RMK QBB140 QFE724/0965
Время наблюдения
2021-08-05T11:00:00Z
Температура C
19.0
Точка росы
15.0
Направление ветра
250
Скорость ветра (узлы)
4
Метео видимость
0.62
Явления погоды
HZ
Условия полета
LIFR
Аэропорт подробнее: 

Авиационная погода в Оренбурге

Регион: 
Погода METAR: 
UWOO 051100Z 22005MPS 200V260 9999 TS SCT040CB 32/14 Q1009 R26/CLRD65 NOSIG RMK QFE746/0995
Время наблюдения
2021-08-05T11:00:00Z
Температура C
32.0
Точка росы
14.0
Направление ветра
220
Скорость ветра (узлы)
10
Метео видимость
6.21
Явления погоды
TS
Условия полета
VFR
Аэропорт подробнее: